sensor_id;sensor_type;location;lat;lon;timestamp;temperature;humidity
17599;DHT22;8918;52.092;5.232;2022-11-11T00:01:35;10.30;99.90
17599;DHT22;8918;52.092;5.232;2022-11-11T00:04:00;10.30;99.90
17599;DHT22;8918;52.092;5.232;2022-11-11T00:06:26;10.20;99.90
17599;DHT22;8918;52.092;5.232;2022-11-11T00:08:51;10.20;99.90
17599;DHT22;8918;52.092;5.232;2022-11-11T00:11:17;10.20;99.90
17599;DHT22;8918;52.092;5.232;2022-11-11T00:13:43;10.20;99.90
17599;DHT22;8918;52.092;5.232;2022-11-11T00:16:17;10.30;99.90
17599;DHT22;8918;52.092;5.232;2022-11-11T00:18:43;10.30;99.90
17599;DHT22;8918;52.092;5.232;2022-11-11T00:21:28;10.30;99.90
17599;DHT22;8918;52.092;5.232;2022-11-11T00:24:20;10.30;99.90
17599;DHT22;8918;52.092;5.232;2022-11-11T00:27:05;10.30;99.90
17599;DHT22;8918;52.092;5.232;2022-11-11T00:29:30;10.30;99.90
17599;DHT22;8918;52.092;5.232;2022-11-11T00:31:56;10.30;99.90
17599;DHT22;8918;52.092;5.232;2022-11-11T00:34:40;10.30;99.90
17599;DHT22;8918;52.092;5.232;2022-11-11T00:37:25;10.40;99.90
17599;DHT22;8918;52.092;5.232;2022-11-11T00:39:51;10.40;99.90
17599;DHT22;8918;52.092;5.232;2022-11-11T00:42:17;10.50;99.90
17599;DHT22;8918;52.092;5.232;2022-11-11T00:44:42;10.50;99.90
17599;DHT22;8918;52.092;5.232;2022-11-11T00:47:08;10.50;99.90
17599;DHT22;8918;52.092;5.232;2022-11-11T00:49:53;10.60;99.90
17599;DHT22;8918;52.092;5.232;2022-11-11T00:52:37;10.60;99.90
17599;DHT22;8918;52.092;5.232;2022-11-11T00:55:02;10.60;99.90
17599;DHT22;8918;52.092;5.232;2022-11-11T00:57:28;10.70;99.90
17599;DHT22;8918;52.092;5.232;2022-11-11T00:59:54;10.70;99.90
17599;DHT22;8918;52.092;5.232;2022-11-11T01:02:19;10.70;99.90
17599;DHT22;8918;52.092;5.232;2022-11-11T01:04:45;10.70;99.90
17599;DHT22;8918;52.092;5.232;2022-11-11T01:07:10;10.70;99.90
17599;DHT22;8918;52.092;5.232;2022-11-11T01:09:36;10.80;99.90
17599;DHT22;8918;52.092;5.232;2022-11-11T01:12:01;10.80;99.90
17599;DHT22;8918;52.092;5.232;2022-11-11T01:14:27;10.70;99.90
17599;DHT22;8918;52.092;5.232;2022-11-11T01:16:52;10.70;99.90
17599;DHT22;8918;52.092;5.232;2022-11-11T01:19:18;10.70;99.90
17599;DHT22;8918;52.092;5.232;2022-11-11T01:21:43;10.80;99.90
17599;DHT22;8918;52.092;5.232;2022-11-11T01:24:09;10.80;99.90
17599;DHT22;8918;52.092;5.232;2022-11-11T01:26:34;10.80;99.90
17599;DHT22;8918;52.092;5.232;2022-11-11T01:29:00;10.80;99.90
17599;DHT22;8918;52.092;5.232;2022-11-11T01:31:26;10.90;99.90
17599;DHT22;8918;52.092;5.232;2022-11-11T01:33:51;10.90;99.90
17599;DHT22;8918;52.092;5.232;2022-11-11T01:36:23;10.90;99.90
17599;DHT22;8918;52.092;5.232;2022-11-11T01:38:52;10.90;99.90
17599;DHT22;8918;52.092;5.232;2022-11-11T01:41:20;10.80;99.90
17599;DHT22;8918;52.092;5.232;2022-11-11T01:47:15;10.80;99.90
17599;DHT22;8918;52.092;5.232;2022-11-11T01:49:56;10.80;99.90
17599;DHT22;8918;52.092;5.232;2022-11-11T01:52:32;10.80;99.90
17599;DHT22;8918;52.092;5.232;2022-11-11T01:55:14;10.80;99.90
17599;DHT22;8918;52.092;5.232;2022-11-11T01:58:02;10.80;99.90
17599;DHT22;8918;52.092;5.232;2022-11-11T02:00:29;10.80;99.90
17599;DHT22;8918;52.092;5.232;2022-11-11T02:03:03;10.80;99.90
17599;DHT22;8918;52.092;5.232;2022-11-11T02:05:30;10.70;99.90
17599;DHT22;8918;52.092;5.232;2022-11-11T02:08:17;10.70;99.90
17599;DHT22;8918;52.092;5.232;2022-11-11T02:11:05;10.80;99.90
17599;DHT22;8918;52.092;5.232;2022-11-11T02:13:33;10.70;99.90
17599;DHT22;8918;52.092;5.232;2022-11-11T02:16:20;10.80;99.90
17599;DHT22;8918;52.092;5.232;2022-11-11T02:18:46;10.70;99.90
17599;DHT22;8918;52.092;5.232;2022-11-11T02:21:15;10.70;99.90
17599;DHT22;8918;52.092;5.232;2022-11-11T02:26:21;10.70;99.90
17599;DHT22;8918;52.092;5.232;2022-11-11T02:28:47;10.70;99.90
17599;DHT22;8918;52.092;5.232;2022-11-11T02:31:13;10.70;99.90
17599;DHT22;8918;52.092;5.232;2022-11-11T02:33:38;10.70;99.90
17599;DHT22;8918;52.092;5.232;2022-11-11T02:36:05;10.70;99.90
17599;DHT22;8918;52.092;5.232;2022-11-11T02:38:31;10.60;99.90
17599;DHT22;8918;52.092;5.232;2022-11-11T02:40:56;10.60;99.90
17599;DHT22;8918;52.092;5.232;2022-11-11T02:43:40;10.60;99.90
17599;DHT22;8918;52.092;5.232;2022-11-11T02:46:06;10.50;99.90
17599;DHT22;8918;52.092;5.232;2022-11-11T02:48:32;10.50;99.90
17599;DHT22;8918;52.092;5.232;2022-11-11T02:50:58;10.50;99.90
17599;DHT22;8918;52.092;5.232;2022-11-11T02:53:24;10.40;99.90
17599;DHT22;8918;52.092;5.232;2022-11-11T02:55:49;10.40;99.90
17599;DHT22;8918;52.092;5.232;2022-11-11T02:58:15;10.40;99.90
17599;DHT22;8918;52.092;5.232;2022-11-11T03:00:41;10.30;99.90
17599;DHT22;8918;52.092;5.232;2022-11-11T03:03:10;10.30;99.90
17599;DHT22;8918;52.092;5.232;2022-11-11T03:05:35;10.30;99.90
17599;DHT22;8918;52.092;5.232;2022-11-11T03:08:01;10.30;99.90
17599;DHT22;8918;52.092;5.232;2022-11-11T03:10:27;10.30;99.90
17599;DHT22;8918;52.092;5.232;2022-11-11T03:12:55;10.30;99.90
17599;DHT22;8918;52.092;5.232;2022-11-11T03:15:20;10.30;99.90
17599;DHT22;8918;52.092;5.232;2022-11-11T03:17:46;10.30;99.90
17599;DHT22;8918;52.092;5.232;2022-11-11T03:20:14;10.30;99.90
17599;DHT22;8918;52.092;5.232;2022-11-11T03:23:04;10.30;99.90
17599;DHT22;8918;52.092;5.232;2022-11-11T03:25:30;10.30;99.90
17599;DHT22;8918;52.092;5.232;2022-11-11T03:30:34;10.30;99.90
17599;DHT22;8918;52.092;5.232;2022-11-11T03:33:00;10.20;99.90
17599;DHT22;8918;52.092;5.232;2022-11-11T03:35:27;10.20;99.90
17599;DHT22;8918;52.092;5.232;2022-11-11T03:37:53;10.20;99.90
17599;DHT22;8918;52.092;5.232;2022-11-11T03:40:37;10.20;99.90
17599;DHT22;8918;52.092;5.232;2022-11-11T03:43:03;10.20;99.90
17599;DHT22;8918;52.092;5.232;2022-11-11T03:45:29;10.20;99.90
17599;DHT22;8918;52.092;5.232;2022-11-11T03:47:54;10.20;99.90
17599;DHT22;8918;52.092;5.232;2022-11-11T03:50:20;10.30;99.90
17599;DHT22;8918;52.092;5.232;2022-11-11T03:52:46;10.30;99.90
17599;DHT22;8918;52.092;5.232;2022-11-11T03:55:12;10.20;99.90
17599;DHT22;8918;52.092;5.232;2022-11-11T03:57:40;10.20;99.90
17599;DHT22;8918;52.092;5.232;2022-11-11T04:00:07;10.20;99.90
17599;DHT22;8918;52.092;5.232;2022-11-11T04:02:33;10.20;99.90
17599;DHT22;8918;52.092;5.232;2022-11-11T04:05:17;10.20;99.90
17599;DHT22;8918;52.092;5.232;2022-11-11T04:08:04;10.20;99.90
17599;DHT22;8918;52.092;5.232;2022-11-11T04:10:48;10.20;99.90
17599;DHT22;8918;52.092;5.232;2022-11-11T04:13:14;10.20;99.90
17599;DHT22;8918;52.092;5.232;2022-11-11T04:15:58;10.30;99.90
17599;DHT22;8918;52.092;5.232;2022-11-11T04:18:34;10.20;99.90
17599;DHT22;8918;52.092;5.232;2022-11-11T04:21:18;10.20;99.90
17599;DHT22;8918;52.092;5.232;2022-11-11T04:24:04;10.20;99.90
17599;DHT22;8918;52.092;5.232;2022-11-11T04:26:48;10.20;99.90
17599;DHT22;8918;52.092;5.232;2022-11-11T04:29:14;10.20;99.90
17599;DHT22;8918;52.092;5.232;2022-11-11T04:32:05;10.30;99.90
17599;DHT22;8918;52.092;5.232;2022-11-11T04:35:01;10.20;99.90
17599;DHT22;8918;52.092;5.232;2022-11-11T04:37:30;10.20;99.90
17599;DHT22;8918;52.092;5.232;2022-11-11T04:39:56;10.20;99.90
17599;DHT22;8918;52.092;5.232;2022-11-11T04:42:40;10.20;99.90
17599;DHT22;8918;52.092;5.232;2022-11-11T04:45:08;10.20;99.90
17599;DHT22;8918;52.092;5.232;2022-11-11T04:48:07;10.20;99.90
17599;DHT22;8918;52.092;5.232;2022-11-11T04:50:35;10.20;99.90
17599;DHT22;8918;52.092;5.232;2022-11-11T04:53:03;10.20;99.90
17599;DHT22;8918;52.092;5.232;2022-11-11T04:55:29;10.10;99.90
17599;DHT22;8918;52.092;5.232;2022-11-11T04:58:14;10.10;99.90
17599;DHT22;8918;52.092;5.232;2022-11-11T05:00:40;10.00;99.90
17599;DHT22;8918;52.092;5.232;2022-11-11T05:03:05;10.00;99.90
17599;DHT22;8918;52.092;5.232;2022-11-11T05:06:00;10.00;99.90
17599;DHT22;8918;52.092;5.232;2022-11-11T05:08:49;10.00;99.90
17599;DHT22;8918;52.092;5.232;2022-11-11T05:11:25;10.00;99.90
17599;DHT22;8918;52.092;5.232;2022-11-11T05:13:52;9.90;99.90
17599;DHT22;8918;52.092;5.232;2022-11-11T05:16:46;9.90;99.90
17599;DHT22;8918;52.092;5.232;2022-11-11T05:19:30;9.90;99.90
17599;DHT22;8918;52.092;5.232;2022-11-11T05:22:33;9.80;99.90
17599;DHT22;8918;52.092;5.232;2022-11-11T05:24:59;9.80;99.90
17599;DHT22;8918;52.092;5.232;2022-11-11T05:27:44;9.80;99.90
17599;DHT22;8918;52.092;5.232;2022-11-11T05:30:12;9.70;99.90
17599;DHT22;8918;52.092;5.232;2022-11-11T05:32:38;9.70;99.90
17599;DHT22;8918;52.092;5.232;2022-11-11T05:35:04;9.60;99.90
17599;DHT22;8918;52.092;5.232;2022-11-11T05:37:30;9.70;99.90
17599;DHT22;8918;52.092;5.232;2022-11-11T05:39:56;9.60;99.90
17599;DHT22;8918;52.092;5.232;2022-11-11T05:42:22;9.50;99.90
17599;DHT22;8918;52.092;5.232;2022-11-11T05:44:48;9.60;99.90
17599;DHT22;8918;52.092;5.232;2022-11-11T05:47:13;9.60;99.90
17599;DHT22;8918;52.092;5.232;2022-11-11T05:49:39;9.60;99.90
17599;DHT22;8918;52.092;5.232;2022-11-11T05:52:06;9.50;99.90
17599;DHT22;8918;52.092;5.232;2022-11-11T05:54:32;9.50;99.90
17599;DHT22;8918;52.092;5.232;2022-11-11T05:56:58;9.50;99.90
17599;DHT22;8918;52.092;5.232;2022-11-11T05:59:24;9.40;99.90
17599;DHT22;8918;52.092;5.232;2022-11-11T06:01:50;9.40;99.90
17599;DHT22;8918;52.092;5.232;2022-11-11T06:04:16;9.30;99.90
17599;DHT22;8918;52.092;5.232;2022-11-11T06:06:41;9.40;99.90
17599;DHT22;8918;52.092;5.232;2022-11-11T06:09:07;9.30;99.90
17599;DHT22;8918;52.092;5.232;2022-11-11T06:11:32;9.40;99.90
17599;DHT22;8918;52.092;5.232;2022-11-11T06:13:58;9.40;99.90
17599;DHT22;8918;52.092;5.232;2022-11-11T06:16:24;9.40;99.90
17599;DHT22;8918;52.092;5.232;2022-11-11T06:18:50;9.40;99.90
17599;DHT22;8918;52.092;5.232;2022-11-11T06:21:16;9.40;99.90
17599;DHT22;8918;52.092;5.232;2022-11-11T06:23:41;9.40;99.90
17599;DHT22;8918;52.092;5.232;2022-11-11T06:26:09;9.40;99.90
17599;DHT22;8918;52.092;5.232;2022-11-11T06:31:05;9.40;99.90
17599;DHT22;8918;52.092;5.232;2022-11-11T06:33:32;9.50;99.90
17599;DHT22;8918;52.092;5.232;2022-11-11T06:35:59;9.50;99.90
17599;DHT22;8918;52.092;5.232;2022-11-11T06:38:25;9.50;99.90
17599;DHT22;8918;52.092;5.232;2022-11-11T06:40:50;9.50;99.90
17599;DHT22;8918;52.092;5.232;2022-11-11T06:43:16;9.60;99.90
17599;DHT22;8918;52.092;5.232;2022-11-11T06:45:41;9.60;99.90
17599;DHT22;8918;52.092;5.232;2022-11-11T06:48:07;9.50;99.90
17599;DHT22;8918;52.092;5.232;2022-11-11T06:50:33;9.60;99.90
17599;DHT22;8918;52.092;5.232;2022-11-11T06:53:07;9.60;99.90
17599;DHT22;8918;52.092;5.232;2022-11-11T06:55:33;9.60;99.90
17599;DHT22;8918;52.092;5.232;2022-11-11T06:58:13;9.50;99.90
17599;DHT22;8918;52.092;5.232;2022-11-11T07:00:41;9.50;99.90
17599;DHT22;8918;52.092;5.232;2022-11-11T07:03:09;9.60;99.90
17599;DHT22;8918;52.092;5.232;2022-11-11T07:05:35;9.50;99.90
17599;DHT22;8918;52.092;5.232;2022-11-11T07:08:03;9.60;99.90
17599;DHT22;8918;52.092;5.232;2022-11-11T07:10:29;9.60;99.90
17599;DHT22;8918;52.092;5.232;2022-11-11T07:12:55;9.70;99.90
17599;DHT22;8918;52.092;5.232;2022-11-11T07:15:21;9.70;99.90
17599;DHT22;8918;52.092;5.232;2022-11-11T07:17:46;9.70;99.90
17599;DHT22;8918;52.092;5.232;2022-11-11T07:20:12;9.60;99.90
17599;DHT22;8918;52.092;5.232;2022-11-11T07:22:37;9.70;99.90
17599;DHT22;8918;52.092;5.232;2022-11-11T07:25:03;9.70;99.90
17599;DHT22;8918;52.092;5.232;2022-11-11T07:27:29;9.80;99.90
17599;DHT22;8918;52.092;5.232;2022-11-11T07:29:55;9.80;99.90
17599;DHT22;8918;52.092;5.232;2022-11-11T07:32:20;9.80;99.90
17599;DHT22;8918;52.092;5.232;2022-11-11T07:34:46;9.80;99.90
17599;DHT22;8918;52.092;5.232;2022-11-11T07:37:11;9.70;99.90
17599;DHT22;8918;52.092;5.232;2022-11-11T07:39:37;9.80;99.90
17599;DHT22;8918;52.092;5.232;2022-11-11T07:42:02;9.80;99.90
17599;DHT22;8918;52.092;5.232;2022-11-11T07:44:28;9.80;99.90
17599;DHT22;8918;52.092;5.232;2022-11-11T07:46:53;9.70;99.90
17599;DHT22;8918;52.092;5.232;2022-11-11T07:49:19;9.80;99.90
17599;DHT22;8918;52.092;5.232;2022-11-11T07:51:45;9.80;99.90
17599;DHT22;8918;52.092;5.232;2022-11-11T07:54:10;9.80;99.90
17599;DHT22;8918;52.092;5.232;2022-11-11T07:56:36;9.80;99.90
17599;DHT22;8918;52.092;5.232;2022-11-11T07:59:02;9.70;99.90
17599;DHT22;8918;52.092;5.232;2022-11-11T08:01:27;9.70;99.90
17599;DHT22;8918;52.092;5.232;2022-11-11T08:03:53;9.70;99.90
17599;DHT22;8918;52.092;5.232;2022-11-11T08:06:20;9.70;99.90
17599;DHT22;8918;52.092;5.232;2022-11-11T08:08:47;9.80;99.90
17599;DHT22;8918;52.092;5.232;2022-11-11T08:11:13;9.80;99.90
17599;DHT22;8918;52.092;5.232;2022-11-11T08:13:39;9.80;99.90
17599;DHT22;8918;52.092;5.232;2022-11-11T08:16:09;9.80;99.90
17599;DHT22;8918;52.092;5.232;2022-11-11T08:18:35;9.80;99.90
17599;DHT22;8918;52.092;5.232;2022-11-11T08:21:02;9.80;99.90
17599;DHT22;8918;52.092;5.232;2022-11-11T08:23:28;9.80;99.90
17599;DHT22;8918;52.092;5.232;2022-11-11T08:26:01;9.80;99.90
17599;DHT22;8918;52.092;5.232;2022-11-11T08:28:29;9.80;99.90
17599;DHT22;8918;52.092;5.232;2022-11-11T08:30:57;9.80;99.90
17599;DHT22;8918;52.092;5.232;2022-11-11T08:33:23;9.80;99.90
17599;DHT22;8918;52.092;5.232;2022-11-11T08:35:49;9.80;99.90
17599;DHT22;8918;52.092;5.232;2022-11-11T08:38:14;9.80;99.90
17599;DHT22;8918;52.092;5.232;2022-11-11T08:40:40;9.80;99.90
17599;DHT22;8918;52.092;5.232;2022-11-11T08:43:05;9.90;99.90
17599;DHT22;8918;52.092;5.232;2022-11-11T08:45:31;9.80;99.90
17599;DHT22;8918;52.092;5.232;2022-11-11T08:47:57;9.90;99.90
17599;DHT22;8918;52.092;5.232;2022-11-11T08:50:23;9.90;99.90
17599;DHT22;8918;52.092;5.232;2022-11-11T08:52:50;9.90;99.90
17599;DHT22;8918;52.092;5.232;2022-11-11T08:55:17;9.90;99.90
17599;DHT22;8918;52.092;5.232;2022-11-11T08:57:42;10.00;99.90
17599;DHT22;8918;52.092;5.232;2022-11-11T09:00:09;10.00;99.90
17599;DHT22;8918;52.092;5.232;2022-11-11T09:02:36;10.00;99.90
17599;DHT22;8918;52.092;5.232;2022-11-11T09:05:02;10.00;99.90
17599;DHT22;8918;52.092;5.232;2022-11-11T09:07:28;10.00;99.90
17599;DHT22;8918;52.092;5.232;2022-11-11T09:09:54;10.00;99.90
17599;DHT22;8918;52.092;5.232;2022-11-11T09:12:19;10.00;99.90
17599;DHT22;8918;52.092;5.232;2022-11-11T09:14:45;10.00;99.90
17599;DHT22;8918;52.092;5.232;2022-11-11T09:17:11;10.10;99.90
17599;DHT22;8918;52.092;5.232;2022-11-11T09:19:36;10.10;99.90
17599;DHT22;8918;52.092;5.232;2022-11-11T09:22:02;10.10;99.90
17599;DHT22;8918;52.092;5.232;2022-11-11T09:24:27;10.10;99.90
17599;DHT22;8918;52.092;5.232;2022-11-11T09:26:53;10.10;99.90
17599;DHT22;8918;52.092;5.232;2022-11-11T09:29:19;10.10;99.90
17599;DHT22;8918;52.092;5.232;2022-11-11T09:31:45;10.10;99.90
17599;DHT22;8918;52.092;5.232;2022-11-11T09:34:11;10.10;99.90
17599;DHT22;8918;52.092;5.232;2022-11-11T09:36:36;10.10;99.90
17599;DHT22;8918;52.092;5.232;2022-11-11T09:39:02;10.10;99.90
17599;DHT22;8918;52.092;5.232;2022-11-11T09:44:00;10.10;99.90
17599;DHT22;8918;52.092;5.232;2022-11-11T09:54:16;10.20;99.90
17599;DHT22;8918;52.092;5.232;2022-11-11T09:56:43;10.20;99.90
17599;DHT22;8918;52.092;5.232;2022-11-11T09:59:16;10.20;99.90
17599;DHT22;8918;52.092;5.232;2022-11-11T10:01:55;10.30;99.90
17599;DHT22;8918;52.092;5.232;2022-11-11T10:10:16;10.50;99.90
17599;DHT22;8918;52.092;5.232;2022-11-11T10:12:48;10.40;99.90
17599;DHT22;8918;52.092;5.232;2022-11-11T10:15:15;10.40;99.90
17599;DHT22;8918;52.092;5.232;2022-11-11T10:18:00;10.50;99.90
17599;DHT22;8918;52.092;5.232;2022-11-11T10:20:31;10.60;99.90
17599;DHT22;8918;52.092;5.232;2022-11-11T10:23:16;10.60;99.90
17599;DHT22;8918;52.092;5.232;2022-11-11T10:26:16;10.60;99.90
17599;DHT22;8918;52.092;5.232;2022-11-11T10:28:44;10.70;99.90
17599;DHT22;8918;52.092;5.232;2022-11-11T10:31:17;10.70;99.90
17599;DHT22;8918;52.092;5.232;2022-11-11T10:34:02;10.70;99.90
17599;DHT22;8918;52.092;5.232;2022-11-11T10:36:30;10.70;99.90
17599;DHT22;8918;52.092;5.232;2022-11-11T10:39:00;10.80;99.90
17599;DHT22;8918;52.092;5.232;2022-11-11T10:41:43;10.80;99.90
17599;DHT22;8918;52.092;5.232;2022-11-11T10:44:24;10.80;99.90
17599;DHT22;8918;52.092;5.232;2022-11-11T10:49:23;10.80;99.90
17599;DHT22;8918;52.092;5.232;2022-11-11T10:54:44;10.80;99.90
17599;DHT22;8918;52.092;5.232;2022-11-11T10:57:15;10.70;99.90
17599;DHT22;8918;52.092;5.232;2022-11-11T11:00:00;10.80;99.90
17599;DHT22;8918;52.092;5.232;2022-11-11T11:03:13;10.80;99.90
17599;DHT22;8918;52.092;5.232;2022-11-11T11:05:35;10.90;99.90
17599;DHT22;8918;52.092;5.232;2022-11-11T11:08:26;10.90;99.90
17599;DHT22;8918;52.092;5.232;2022-11-11T11:10:59;10.90;99.90
17599;DHT22;8918;52.092;5.232;2022-11-11T11:13:50;11.00;99.90
17599;DHT22;8918;52.092;5.232;2022-11-11T11:16:22;11.10;99.90
17599;DHT22;8918;52.092;5.232;2022-11-11T11:21:57;11.20;99.90
17599;DHT22;8918;52.092;5.232;2022-11-11T11:24:31;11.20;99.90
17599;DHT22;8918;52.092;5.232;2022-11-11T11:27:05;11.20;99.90
17599;DHT22;8918;52.092;5.232;2022-11-11T11:29:43;11.20;99.90
17599;DHT22;8918;52.092;5.232;2022-11-11T11:32:20;11.20;99.90
17599;DHT22;8918;52.092;5.232;2022-11-11T11:34:51;11.20;99.90
17599;DHT22;8918;52.092;5.232;2022-11-11T11:37:18;11.30;99.90
17599;DHT22;8918;52.092;5.232;2022-11-11T11:39:44;11.20;99.90
17599;DHT22;8918;52.092;5.232;2022-11-11T11:44:52;11.20;99.90
17599;DHT22;8918;52.092;5.232;2022-11-11T11:55:21;11.30;99.90
17599;DHT22;8918;52.092;5.232;2022-11-11T12:00:23;11.40;99.90
17599;DHT22;8918;52.092;5.232;2022-11-11T12:03:25;11.40;99.90
17599;DHT22;8918;52.092;5.232;2022-11-11T12:06:14;11.40;99.90
17599;DHT22;8918;52.092;5.232;2022-11-11T12:17:39;11.60;99.90
17599;DHT22;8918;52.092;5.232;2022-11-11T12:20:08;11.60;99.90
17599;DHT22;8918;52.092;5.232;2022-11-11T12:25:42;11.80;99.90
17599;DHT22;8918;52.092;5.232;2022-11-11T12:34:19;12.10;99.90
17599;DHT22;8918;52.092;5.232;2022-11-11T12:36:55;12.10;99.90
17599;DHT22;8918;52.092;5.232;2022-11-11T12:50:51;12.40;99.90
17599;DHT22;8918;52.092;5.232;2022-11-11T13:01:48;12.50;99.90
17599;DHT22;8918;52.092;5.232;2022-11-11T13:15:26;12.60;99.90
17599;DHT22;8918;52.092;5.232;2022-11-11T13:17:52;12.60;99.90
17599;DHT22;8918;52.092;5.232;2022-11-11T13:23:11;12.60;99.90
17599;DHT22;8918;52.092;5.232;2022-11-11T13:25:48;12.60;99.90
17599;DHT22;8918;52.092;5.232;2022-11-11T13:28:23;12.60;99.90
17599;DHT22;8918;52.092;5.232;2022-11-11T13:31:12;12.70;99.90
17599;DHT22;8918;52.092;5.232;2022-11-11T13:33:45;12.70;99.90
17599;DHT22;8918;52.092;5.232;2022-11-11T13:36:15;12.80;99.90
17599;DHT22;8918;52.092;5.232;2022-11-11T13:38:53;12.80;99.90
17599;DHT22;8918;52.092;5.232;2022-11-11T13:43:52;12.90;99.90
17599;DHT22;8918;52.092;5.232;2022-11-11T13:46:37;13.00;99.90
17599;DHT22;8918;52.092;5.232;2022-11-11T13:49:07;13.00;99.90
17599;DHT22;8918;52.092;5.232;2022-11-11T13:51:39;13.00;99.90
17599;DHT22;8918;52.092;5.232;2022-11-11T13:54:26;13.00;99.90
17599;DHT22;8918;52.092;5.232;2022-11-11T13:57:21;13.10;99.90
17599;DHT22;8918;52.092;5.232;2022-11-11T14:20:50;13.00;99.90
17599;DHT22;8918;52.092;5.232;2022-11-11T14:37:03;12.80;99.90
17599;DHT22;8918;52.092;5.232;2022-11-11T14:39:52;12.80;99.90
17599;DHT22;8918;52.092;5.232;2022-11-11T14:45:04;12.80;99.90
17599;DHT22;8918;52.092;5.232;2022-11-11T14:47:31;12.70;99.90
17599;DHT22;8918;52.092;5.232;2022-11-11T14:49:57;12.70;99.90
17599;DHT22;8918;52.092;5.232;2022-11-11T14:55:07;12.60;99.90
17599;DHT22;8918;52.092;5.232;2022-11-11T14:57:38;12.60;99.90
17599;DHT22;8918;52.092;5.232;2022-11-11T15:02:40;12.50;99.90
17599;DHT22;8918;52.092;5.232;2022-11-11T15:05:14;12.40;99.90
17599;DHT22;8918;52.092;5.232;2022-11-11T15:10:56;12.40;99.90
17599;DHT22;8918;52.092;5.232;2022-11-11T15:13:39;12.40;99.90
17599;DHT22;8918;52.092;5.232;2022-11-11T15:19:28;12.30;99.90
17599;DHT22;8918;52.092;5.232;2022-11-11T15:22:09;12.20;99.90
17599;DHT22;8918;52.092;5.232;2022-11-11T15:24:45;12.20;99.90
17599;DHT22;8918;52.092;5.232;2022-11-11T15:30:14;12.10;99.90
17599;DHT22;8918;52.092;5.232;2022-11-11T15:35:49;11.90;99.90
17599;DHT22;8918;52.092;5.232;2022-11-11T15:38:17;11.90;99.90
17599;DHT22;8918;52.092;5.232;2022-11-11T15:40:54;11.80;99.90
17599;DHT22;8918;52.092;5.232;2022-11-11T15:43:25;11.70;99.90
17599;DHT22;8918;52.092;5.232;2022-11-11T15:45:54;11.70;99.90
17599;DHT22;8918;52.092;5.232;2022-11-11T15:48:34;11.70;99.90
17599;DHT22;8918;52.092;5.232;2022-11-11T15:51:15;11.60;99.90
17599;DHT22;8918;52.092;5.232;2022-11-11T15:53:41;11.60;99.90
17599;DHT22;8918;52.092;5.232;2022-11-11T15:56:07;11.60;99.90
17599;DHT22;8918;52.092;5.232;2022-11-11T15:58:34;11.60;99.90
17599;DHT22;8918;52.092;5.232;2022-11-11T16:01:03;11.50;99.90
17599;DHT22;8918;52.092;5.232;2022-11-11T16:03:39;11.50;99.90
17599;DHT22;8918;52.092;5.232;2022-11-11T16:06:09;11.40;99.90
17599;DHT22;8918;52.092;5.232;2022-11-11T16:08:35;11.40;99.90
17599;DHT22;8918;52.092;5.232;2022-11-11T16:11:01;11.40;99.90
17599;DHT22;8918;52.092;5.232;2022-11-11T16:13:38;11.40;99.90
17599;DHT22;8918;52.092;5.232;2022-11-11T16:16:14;11.30;99.90
17599;DHT22;8918;52.092;5.232;2022-11-11T16:18:45;11.30;99.90
17599;DHT22;8918;52.092;5.232;2022-11-11T16:21:18;11.20;99.90
17599;DHT22;8918;52.092;5.232;2022-11-11T16:23:46;11.20;99.90
17599;DHT22;8918;52.092;5.232;2022-11-11T16:26:12;11.10;99.90
17599;DHT22;8918;52.092;5.232;2022-11-11T16:29:02;11.10;99.90
17599;DHT22;8918;52.092;5.232;2022-11-11T16:33:59;10.80;99.90
17599;DHT22;8918;52.092;5.232;2022-11-11T16:36:25;10.80;99.90
17599;DHT22;8918;52.092;5.232;2022-11-11T16:38:51;10.80;99.90
17599;DHT22;8918;52.092;5.232;2022-11-11T16:41:28;10.70;99.90
17599;DHT22;8918;52.092;5.232;2022-11-11T16:43:56;10.70;99.90
17599;DHT22;8918;52.092;5.232;2022-11-11T16:46:37;10.60;99.90
17599;DHT22;8918;52.092;5.232;2022-11-11T16:51:46;10.60;99.90
17599;DHT22;8918;52.092;5.232;2022-11-11T16:54:18;10.50;99.90
17599;DHT22;8918;52.092;5.232;2022-11-11T16:56:48;10.60;99.90
17599;DHT22;8918;52.092;5.232;2022-11-11T16:59:31;10.50;99.90
17599;DHT22;8918;52.092;5.232;2022-11-11T17:01:58;10.40;99.90
17599;DHT22;8918;52.092;5.232;2022-11-11T17:04:24;10.40;99.90
17599;DHT22;8918;52.092;5.232;2022-11-11T17:06:57;10.30;99.90
17599;DHT22;8918;52.092;5.232;2022-11-11T17:09:39;10.30;99.90
17599;DHT22;8918;52.092;5.232;2022-11-11T17:12:06;10.20;99.90
17599;DHT22;8918;52.092;5.232;2022-11-11T17:14:35;10.20;99.90
17599;DHT22;8918;52.092;5.232;2022-11-11T17:17:02;10.10;99.90
17599;DHT22;8918;52.092;5.232;2022-11-11T17:19:29;10.10;99.90
17599;DHT22;8918;52.092;5.232;2022-11-11T17:22:04;10.10;99.90
17599;DHT22;8918;52.092;5.232;2022-11-11T17:24:29;10.10;99.90
17599;DHT22;8918;52.092;5.232;2022-11-11T17:26:55;10.10;99.90
17599;DHT22;8918;52.092;5.232;2022-11-11T17:29:20;10.20;99.90
17599;DHT22;8918;52.092;5.232;2022-11-11T17:31:46;10.20;99.90
17599;DHT22;8918;52.092;5.232;2022-11-11T17:34:11;10.30;99.90
17599;DHT22;8918;52.092;5.232;2022-11-11T17:36:37;10.30;99.90
17599;DHT22;8918;52.092;5.232;2022-11-11T17:39:03;10.30;99.90
17599;DHT22;8918;52.092;5.232;2022-11-11T17:41:29;10.30;99.90
17599;DHT22;8918;52.092;5.232;2022-11-11T17:43:54;10.30;99.90
17599;DHT22;8918;52.092;5.232;2022-11-11T17:46:20;10.30;99.90
17599;DHT22;8918;52.092;5.232;2022-11-11T17:48:45;10.30;99.90
17599;DHT22;8918;52.092;5.232;2022-11-11T17:51:11;10.20;99.90
17599;DHT22;8918;52.092;5.232;2022-11-11T17:53:36;10.10;99.90
17599;DHT22;8918;52.092;5.232;2022-11-11T17:56:03;10.00;99.90
17599;DHT22;8918;52.092;5.232;2022-11-11T17:58:29;10.00;99.90
17599;DHT22;8918;52.092;5.232;2022-11-11T18:00:54;9.90;99.90
17599;DHT22;8918;52.092;5.232;2022-11-11T18:03:28;9.90;99.90
17599;DHT22;8918;52.092;5.232;2022-11-11T18:05:53;9.90;99.90
17599;DHT22;8918;52.092;5.232;2022-11-11T18:08:19;9.90;99.90
17599;DHT22;8918;52.092;5.232;2022-11-11T18:10:44;9.90;99.90
17599;DHT22;8918;52.092;5.232;2022-11-11T18:13:10;9.90;99.90
17599;DHT22;8918;52.092;5.232;2022-11-11T18:15:35;9.90;99.90
17599;DHT22;8918;52.092;5.232;2022-11-11T18:18:01;9.80;99.90
17599;DHT22;8918;52.092;5.232;2022-11-11T18:20:26;9.70;99.90
17599;DHT22;8918;52.092;5.232;2022-11-11T18:22:55;9.70;99.90
17599;DHT22;8918;52.092;5.232;2022-11-11T18:25:23;9.70;99.90
17599;DHT22;8918;52.092;5.232;2022-11-11T18:27:52;9.70;99.90
17599;DHT22;8918;52.092;5.232;2022-11-11T18:30:17;9.70;99.90
17599;DHT22;8918;52.092;5.232;2022-11-11T18:32:43;9.60;99.90
17599;DHT22;8918;52.092;5.232;2022-11-11T18:35:11;9.60;99.90
17599;DHT22;8918;52.092;5.232;2022-11-11T18:37:37;9.50;99.90
17599;DHT22;8918;52.092;5.232;2022-11-11T18:40:03;9.50;99.90
17599;DHT22;8918;52.092;5.232;2022-11-11T18:42:30;9.40;99.90
17599;DHT22;8918;52.092;5.232;2022-11-11T18:44:55;9.40;99.90
17599;DHT22;8918;52.092;5.232;2022-11-11T18:47:21;9.30;99.90
17599;DHT22;8918;52.092;5.232;2022-11-11T18:49:46;9.30;99.90
17599;DHT22;8918;52.092;5.232;2022-11-11T18:52:12;9.30;99.90
17599;DHT22;8918;52.092;5.232;2022-11-11T18:54:37;9.30;99.90